Brandon Kyle — WDJ3076 — position and weather

sailwx.info

Track history (hours):
 
Tides and Currents Weather Stations Pressure Air Temp Water Temp Dewpoint Dewpoint Depression Visibility Wind Speed Wind Dir Waves Ship Positions

Brandon Kyle

Owner: D&S Marine Service LLC Brandon Kyle, Gray, LA. More information available from US FCC via Universal Licensing System and Coast Guard Vessel Documentation Center.

Last reported at 2018-Jan-19 21:51 UTC. Time now 2018-Jan-20 15:14 UTC.
Position N 29°45' W 095°06'.

Length 206 m; draft 3 m.

Type: . MMSI: 367764520.

Date/timePositionNaut miles runAvg speedWind from/ knotsBaromVisibWave heightAir tempDewpointWater temp
2018-Jan-19 21:51N 29°45' W 095°06'0 0.2
2018-Jan-19 21:30N 29°45' W 095°06'0 0.3
2018-Jan-19 20:04N 29°46' W 095°05'1 2.6
2018-Jan-19 19:52N 29°46' W 095°06'1 0.1
2018-Jan-19 10:44N 29°45' W 095°06'0 0.0
2018-Jan-19 02:10N 29°45' W 095°06'2 0.8
2018-Jan-18 23:53N 29°47' W 095°05'0 0.6
2018-Jan-18 23:07N 29°47' W 095°04'2 0.6
2018-Jan-18 20:07N 29°46' W 095°05'0 2.3
2018-Jan-18 19:56N 29°46' W 095°06'0 0.7
2018-Jan-18 19:28N 29°46' W 095°05'2 3.2
2018-Jan-18 18:48N 29°44' W 095°04'1 4.6
2018-Jan-18 18:30N 29°44' W 095°02'0 0.1
2018-Jan-18 17:59N 29°44' W 095°02'2 3.5
2018-Jan-18 17:30N 29°42' W 095°01'3 6.0
2018-Jan-18 17:00N 29°40' W 094°59'3 7.0
2018-Jan-18 16:30N 29°37' W 094°57'4 7.8
2018-Jan-18 16:00N 29°34' W 094°55'3 6.7
2018-Jan-18 15:30N 29°31' W 094°53'  
2018-Jan-12 10:19N 29°45' W 095°06'0 0.0
2018-Jan-12 04:13N 29°46' W 095°06'0 0.0
2018-Jan-12 04:00N 29°46' W 095°06'0 0.0
2018-Jan-12 03:30N 29°46' W 095°06'0 0.1
2018-Jan-12 02:59N 29°45' W 095°06'0 0.0
2018-Jan-12 02:30N 29°45' W 095°06'0 0.1
2018-Jan-12 01:15N 29°45' W 095°06'0 0.2
2018-Jan-12 01:00N 29°45' W 095°06'1 1.6
2018-Jan-12 00:30N 29°45' W 095°06'0 0.0
2018-Jan-11 06:23N 29°45' W 095°06'0 0.8
2018-Jan-11 05:53N 29°45' W 095°06'1 0.7
2018-Jan-11 04:23N 29°46' W 095°07'1 1.0
2018-Jan-11 03:39N 29°45' W 095°06'0 1.4
2018-Jan-11 03:29N 29°45' W 095°06'1 1.7
2018-Jan-11 02:57N 29°46' W 095°07'0 0.0
2018-Jan-10 08:05N 29°46' W 095°07'1 5.3
2018-Jan-10 07:55N 29°45' W 095°06'1 0.8
2018-Jan-10 06:35N 29°46' W 095°07'1 3.3
2018-Jan-10 06:15N 29°45' W 095°06'0 0.1
2018-Jan-10 05:59N 29°45' W 095°06'0 0.4
2018-Jan-10 05:28N 29°46' W 095°06'0 0.2
2018-Jan-10 04:15N 29°46' W 095°05'  
Track history (hours):
 
Tides and Currents Weather Stations Pressure Air Temp Water Temp Dewpoint Dewpoint Depression Visibility Wind Speed Wind Dir Waves Ship Positions

Brandon Kyle

Owner: D&S Marine Service LLC Brandon Kyle, Gray, LA. More information available from US FCC via Universal Licensing System and Coast Guard Vessel Documentation Center.

Last reported at 2018-Jan-19 21:51 UTC. Time now 2018-Jan-20 15:14 UTC.
Position N 29°45' W 095°06'.

Length 206 m; draft 3 m.

Type: . MMSI: 367764520.

Date/timePositionNaut miles runAvg speedWind from/ knotsBaromVisibWave heightAir tempDewpointWater temp
2018-Jan-19 21:51N 29°45' W 095°06'0 0.2
2018-Jan-19 21:30N 29°45' W 095°06'0 0.3
2018-Jan-19 20:04N 29°46' W 095°05'1 2.6
2018-Jan-19 19:52N 29°46' W 095°06'1 0.1
2018-Jan-19 10:44N 29°45' W 095°06'0 0.0
2018-Jan-19 02:10N 29°45' W 095°06'2 0.8
2018-Jan-18 23:53N 29°47' W 095°05'0 0.6
2018-Jan-18 23:07N 29°47' W 095°04'2 0.6
2018-Jan-18 20:07N 29°46' W 095°05'0 2.3
2018-Jan-18 19:56N 29°46' W 095°06'0 0.7
2018-Jan-18 19:28N 29°46' W 095°05'2 3.2
2018-Jan-18 18:48N 29°44' W 095°04'1 4.6
2018-Jan-18 18:30N 29°44' W 095°02'0 0.1
2018-Jan-18 17:59N 29°44' W 095°02'2 3.5
2018-Jan-18 17:30N 29°42' W 095°01'3 6.0
2018-Jan-18 17:00N 29°40' W 094°59'3 7.0
2018-Jan-18 16:30N 29°37' W 094°57'4 7.8
2018-Jan-18 16:00N 29°34' W 094°55'3 6.7
2018-Jan-18 15:30N 29°31' W 094°53'  
2018-Jan-12 10:19N 29°45' W 095°06'0 0.0
2018-Jan-12 04:13N 29°46' W 095°06'0 0.0
2018-Jan-12 04:00N 29°46' W 095°06'0 0.0
2018-Jan-12 03:30N 29°46' W 095°06'0 0.1
2018-Jan-12 02:59N 29°45' W 095°06'0 0.0
2018-Jan-12 02:30N 29°45' W 095°06'0 0.1
2018-Jan-12 01:15N 29°45' W 095°06'0 0.2
2018-Jan-12 01:00N 29°45' W 095°06'1 1.6
2018-Jan-12 00:30N 29°45' W 095°06'0 0.0
2018-Jan-11 06:23N 29°45' W 095°06'0 0.8
2018-Jan-11 05:53N 29°45' W 095°06'1 0.7
2018-Jan-11 04:23N 29°46' W 095°07'1 1.0
2018-Jan-11 03:39N 29°45' W 095°06'0 1.4
2018-Jan-11 03:29N 29°45' W 095°06'1 1.7
2018-Jan-11 02:57N 29°46' W 095°07'0 0.0
2018-Jan-10 08:05N 29°46' W 095°07'1 5.3
2018-Jan-10 07:55N 29°45' W 095°06'1 0.8
2018-Jan-10 06:35N 29°46' W 095°07'1 3.3
2018-Jan-10 06:15N 29°45' W 095°06'0 0.1
2018-Jan-10 05:59N 29°45' W 095°06'0 0.4
2018-Jan-10 05:28N 29°46' W 095°06'0 0.2
2018-Jan-10 04:15N 29°46' W 095°05'  

Dump ship's entire track history